Time,TemperatureF,DewpointF,PressureIn,WindDirection,WindDirectionDegrees,WindSpeedMPH,WindSpeedGustMPH,Humidity,HourlyPrecipIn,Conditions,Clouds,dailyrainin,SoftwareType,DateUTC
2013-01-02 00:05:00,12.8,8.4,30.12,WSW,238,0.0,4.0,82,0.00,,,0.00,VWS V14.01,2013-01-02 05:05:00,
2013-01-02 00:16:00,14.2,9.4,30.11,WSW,255,0.0,3.0,81,0.00,,,0.00,VWS V14.01,2013-01-02 05:16:00,
2013-01-02 00:31:00,15.3,10.0,30.11,SW,229,1.0,4.0,79,0.00,,,0.00,VWS V14.01,2013-01-02 05:31:00,
2013-01-02 00:46:00,16.1,10.5,30.11,West,261,1.0,6.0,78,0.00,,,0.00,VWS V14.01,2013-01-02 05:46:00,
2013-01-02 01:01:00,16.6,10.9,30.10,SW,236,4.0,6.0,78,0.00,,,0.00,VWS V14.01,2013-01-02 06:01:00,
2013-01-02 01:16:00,16.8,10.9,30.10,WSW,242,2.0,7.0,77,0.00,,,0.00,VWS V14.01,2013-01-02 06:16:00,
2013-01-02 01:31:00,17.0,11.1,30.10,WSW,244,1.0,6.0,77,0.00,,,0.00,VWS V14.01,2013-01-02 06:31:00,
2013-01-02 01:46:00,17.1,11.1,30.10,WSW,246,2.0,4.0,77,0.00,,,0.00,VWS V14.01,2013-01-02 06:46:00,
2013-01-02 02:01:00,17.5,11.5,30.09,SW,226,0.0,4.0,77,0.00,,,0.00,VWS V14.01,2013-01-02 07:01:00,
2013-01-02 02:16:00,17.9,12.2,30.10,WSW,238,0.0,6.0,78,0.00,,,0.00,VWS V14.01,2013-01-02 07:16:00,
2013-01-02 02:31:00,18.9,12.9,30.09,West,275,5.0,8.0,77,0.00,,,0.00,VWS V14.01,2013-01-02 07:31:00,
2013-01-02 02:46:00,21.1,14.7,30.09,NW,306,4.0,9.0,76,0.00,,,0.00,VWS V14.01,2013-01-02 07:46:00,
2013-01-02 03:01:00,20.8,13.5,30.09,WSW,240,2.0,9.0,73,0.00,,,0.00,VWS V14.01,2013-01-02 08:01:00,
2013-01-02 03:16:00,18.8,11.9,30.09,WSW,245,0.0,4.0,74,0.00,,,0.00,VWS V14.01,2013-01-02 08:16:00,
2013-01-02 03:31:00,18.1,11.8,30.09,WSW,246,3.0,4.0,76,0.00,,,0.00,VWS V14.01,2013-01-02 08:31:00,
2013-01-02 03:46:00,18.0,12.0,30.09,WSW,246,0.0,5.0,77,0.00,,,0.00,VWS V14.01,2013-01-02 08:46:00,
2013-01-02 04:01:00,18.0,12.3,30.08,SW,227,0.0,5.0,78,0.00,,,0.00,VWS V14.01,2013-01-02 09:01:00,
2013-01-02 04:16:00,20.6,13.0,30.08,SW,227,5.0,13.0,72,0.00,,,0.00,VWS V14.01,2013-01-02 09:16:00,
2013-01-02 04:31:00,21.4,12.8,30.09,SW,223,4.0,10.0,69,0.00,,,0.00,VWS V14.01,2013-01-02 09:31:00,
2013-01-02 04:46:00,18.6,12.0,30.09,SW,223,3.0,5.0,75,0.00,,,0.00,VWS V14.01,2013-01-02 09:46:00,
2013-01-02 05:01:00,17.6,11.9,30.08,WSW,242,2.0,5.0,78,0.00,,,0.00,VWS V14.01,2013-01-02 10:01:00,
2013-01-02 05:16:00,17.5,12.4,30.08,SW,233,4.0,5.0,80,0.00,,,0.00,VWS V14.01,2013-01-02 10:16:00,
2013-01-02 05:31:00,18.4,13.3,30.08,SW,229,3.0,7.0,80,0.00,,,0.00,VWS V14.01,2013-01-02 10:31:00,
2013-01-02 05:46:00,18.8,13.4,30.08,WSW,237,4.0,8.0,79,0.00,,,0.00,VWS V14.01,2013-01-02 10:46:00,
2013-01-02 06:01:00,19.6,13.9,30.08,SW,229,2.0,9.0,78,0.00,,,0.00,VWS V14.01,2013-01-02 11:01:00,
2013-01-02 06:16:00,20.2,14.4,30.09,West,265,1.0,8.0,78,0.00,,,0.00,VWS V14.01,2013-01-02 11:16:00,
2013-01-02 06:31:00,20.6,15.1,30.09,SW,236,4.0,10.0,79,0.00,,,0.00,VWS V14.01,2013-01-02 11:31:00,
2013-01-02 06:46:00,20.6,15.1,30.10,West,265,3.0,9.0,79,0.00,,,0.00,VWS V14.01,2013-01-02 11:46:00,
2013-01-02 07:01:00,20.7,15.2,30.11,West,263,5.0,12.0,79,0.00,,,0.00,VWS V14.01,2013-01-02 12:01:00,
2013-01-02 07:16:00,20.8,15.3,30.11,SW,215,6.0,13.0,79,0.00,,,0.00,VWS V14.01,2013-01-02 12:16:00,
2013-01-02 07:31:00,20.9,15.1,30.12,WSW,237,3.0,11.0,78,0.00,,,0.00,VWS V14.01,2013-01-02 12:31:00,
2013-01-02 07:46:00,21.1,15.0,30.12,West,261,4.0,11.0,77,0.00,,,0.00,VWS V14.01,2013-01-02 12:46:00,
2013-01-02 08:01:00,21.5,15.1,30.12,West,279,2.0,11.0,76,0.00,,,0.00,VWS V14.01,2013-01-02 13:01:00,
2013-01-02 08:16:00,21.7,15.3,30.12,SW,228,3.0,9.0,76,0.00,,,0.00,VWS V14.01,2013-01-02 13:16:00,
2013-01-02 08:31:00,22.1,15.4,30.12,SW,229,5.0,15.0,75,0.00,,,0.00,VWS V14.01,2013-01-02 13:31:00,
2013-01-02 08:46:00,22.3,15.6,30.13,West,274,3.0,12.0,75,0.00,,,0.00,VWS V14.01,2013-01-02 13:46:00,
2013-01-02 09:01:00,22.5,15.8,30.14,SW,235,3.0,12.0,75,0.00,,,0.00,VWS V14.01,2013-01-02 14:01:00,
2013-01-02 09:16:00,22.6,15.9,30.15,WSW,245,5.0,11.0,75,0.00,,,0.00,VWS V14.01,2013-01-02 14:16:00,
2013-01-02 09:31:00,22.6,16.2,30.15,WNW,286,2.0,10.0,76,0.00,,,0.00,VWS V14.01,2013-01-02 14:31:00,
2013-01-02 09:46:00,22.9,16.2,30.15,WSW,257,1.0,8.0,75,0.00,,,0.00,VWS V14.01,2013-01-02 14:46:00,
2013-01-02 10:01:00,23.0,16.6,30.15,West,269,2.0,13.0,76,0.00,,,0.00,VWS V14.01,2013-01-02 15:01:00,
2013-01-02 10:16:00,23.0,18.6,30.16,SW,219,4.0,7.0,83,0.00,,,0.00,VWS V14.01,2013-01-02 15:16:00,
2013-01-02 10:31:00,23.0,17.2,30.16,West,268,4.0,9.0,78,0.00,,,0.00,VWS V14.01,2013-01-02 15:31:00,
2013-01-02 10:46:00,23.0,17.5,30.17,WSW,244,1.0,9.0,79,0.00,,,0.00,VWS V14.01,2013-01-02 15:46:00,
2013-01-02 11:01:00,23.0,18.0,30.16,WSW,249,2.0,10.0,81,0.00,,,0.00,VWS V14.01,2013-01-02 16:01:00,
2013-01-02 11:16:00,23.3,18.3,30.16,West,260,4.0,9.0,81,0.00,,,0.00,VWS V14.01,2013-01-02 16:16:00,
2013-01-02 11:31:00,23.4,18.4,30.16,WNW,292,2.0,12.0,81,0.00,,,0.00,VWS V14.01,2013-01-02 16:31:00,
2013-01-02 11:46:00,23.4,18.7,30.16,WSW,255,5.0,8.0,82,0.00,,,0.00,VWS V14.01,2013-01-02 16:46:00,
2013-01-02 12:01:00,23.6,19.2,30.16,West,269,3.0,6.0,83,0.00,,,0.00,VWS V14.01,2013-01-02 17:01:00,
2013-01-02 12:16:00,23.9,19.2,30.16,WNW,288,4.0,10.0,82,0.00,,,0.00,VWS V14.01,2013-01-02 17:16:00,
2013-01-02 12:31:00,24.0,19.6,30.16,West,259,3.0,8.0,83,0.00,,,0.00,VWS V14.01,2013-01-02 17:31:00,
2013-01-02 12:46:00,24.4,20.0,30.17,WSW,247,1.0,10.0,83,0.00,,,0.00,VWS V14.01,2013-01-02 17:46:00,
2013-01-02 13:01:00,24.5,19.8,30.17,West,269,2.0,11.0,82,0.00,,,0.00,VWS V14.01,2013-01-02 18:01:00,
2013-01-02 13:16:00,24.8,19.8,30.17,WNW,289,4.0,9.0,81,0.00,,,0.00,VWS V14.01,2013-01-02 18:16:00,
2013-01-02 13:31:00,25.0,19.7,30.17,WSW,257,2.0,7.0,80,0.00,,,0.00,VWS V14.01,2013-01-02 18:31:00,
2013-01-02 13:46:00,25.2,19.3,30.18,West,269,7.0,11.0,78,0.00,,,0.00,VWS V14.01,2013-01-02 18:46:00,
2013-01-02 14:01:00,25.3,19.4,30.18,West,263,4.0,10.0,78,0.00,,,0.00,VWS V14.01,2013-01-02 19:01:00,
2013-01-02 14:16:00,25.3,19.4,30.19,WSW,250,6.0,11.0,78,0.00,,,0.00,VWS V14.01,2013-01-02 19:16:00,
2013-01-02 14:31:00,25.3,19.4,30.19,West,269,1.0,7.0,78,0.00,,,0.00,VWS V14.01,2013-01-02 19:31:00,
2013-01-02 14:46:00,25.4,19.5,30.20,WSW,257,4.0,8.0,78,0.00,,,0.00,VWS V14.01,2013-01-02 19:46:00,
2013-01-02 15:01:00,25.6,19.7,30.21,West,279,0.0,6.0,78,0.00,,,0.00,VWS V14.01,2013-01-02 20:01:00,
2013-01-02 15:16:00,25.6,19.7,30.22,West,269,0.0,6.0,78,0.00,,,0.00,VWS V14.01,2013-01-02 20:16:00,
2013-01-02 15:31:00,24.7,21.1,30.23,NNE,31,0.0,4.0,86,0.00,,,0.00,VWS V14.01,2013-01-02 20:31:00,
2013-01-02 15:46:00,24.0,21.2,30.23,NNE,30,0.0,5.0,89,0.00,,,0.00,VWS V14.01,2013-01-02 20:46:00,
2013-01-02 16:01:00,23.8,21.3,30.24,NE,36,0.0,4.0,90,0.00,,,0.00,VWS V14.01,2013-01-02 21:01:00,
2013-01-02 16:16:00,23.8,21.6,30.24,NE,36,0.0,1.0,91,0.00,,,0.00,VWS V14.01,2013-01-02 21:16:00,
2013-01-02 16:31:00,23.8,21.6,30.24,NE,36,0.0,2.0,91,0.00,,,0.00,VWS V14.01,2013-01-02 21:31:00,
2013-01-02 16:46:00,23.4,21.2,30.25,NE,39,1.0,3.0,91,0.00,,,0.00,VWS V14.01,2013-01-02 21:46:00,
2013-01-02 17:01:00,22.9,20.9,30.25,NE,39,0.0,3.0,92,0.00,,,0.00,VWS V14.01,2013-01-02 22:01:00,
2013-01-02 17:16:00,22.4,20.4,30.26,NE,38,2.0,3.0,92,0.00,,,0.00,VWS V14.01,2013-01-02 22:16:00,
2013-01-02 17:31:00,21.8,19.6,30.27,East,82,0.0,3.0,91,0.00,,,0.00,VWS V14.01,2013-01-02 22:31:00,
2013-01-02 17:46:00,21.5,19.3,30.27,NNE,32,0.0,2.0,91,0.00,,,0.00,VWS V14.01,2013-01-02 22:46:00,
2013-01-02 18:01:00,21.2,19.0,30.26,NE,46,0.0,2.0,91,0.00,,,0.00,VWS V14.01,2013-01-02 23:01:00,
2013-01-02 18:16:00,21.0,18.8,30.27,NE,46,0.0,2.0,91,0.00,,,0.00,VWS V14.01,2013-01-02 23:16:00,
2013-01-02 18:31:00,20.8,18.6,30.27,NE,46,0.0,2.0,91,0.00,,,0.00,VWS V14.01,2013-01-02 23:31:00,
2013-01-02 18:46:00,20.6,18.4,30.27,NE,46,0.0,3.0,91,0.00,,,0.00,VWS V14.01,2013-01-02 23:46:00,
2013-01-02 19:01:00,20.5,18.3,30.27,NE,47,2.0,2.0,91,0.00,,,0.00,VWS V14.01,2013-01-03 00:01:00,
2013-01-02 19:16:00,20.3,18.1,30.27,NE,47,0.0,2.0,91,0.00,,,0.00,VWS V14.01,2013-01-03 00:16:00,
2013-01-02 19:31:00,20.3,18.1,30.28,NE,46,0.0,2.0,91,0.00,,,0.00,VWS V14.01,2013-01-03 00:31:00,
2013-01-02 19:46:00,20.2,17.7,30.28,NE,47,0.0,1.0,90,0.00,,,0.00,VWS V14.01,2013-01-03 00:46:00,
2013-01-02 20:01:00,20.0,17.5,30.28,NE,47,0.0,1.0,90,0.00,,,0.00,VWS V14.01,2013-01-03 01:01:00,
2013-01-02 20:16:00,19.8,17.4,30.28,NE,46,0.0,3.0,90,0.00,,,0.00,VWS V14.01,2013-01-03 01:16:00,
2013-01-02 20:31:00,19.5,16.8,30.29,NE,47,0.0,0.0,89,0.00,,,0.00,VWS V14.01,2013-01-03 01:31:00,
2013-01-02 20:46:00,19.1,16.4,30.30,NE,48,1.0,2.0,89,0.00,,,0.00,VWS V14.01,2013-01-03 01:46:00,
2013-01-02 21:01:00,18.9,16.2,30.30,NE,48,0.0,1.0,89,0.00,,,0.00,VWS V14.01,2013-01-03 02:01:00,
2013-01-02 21:16:00,18.6,15.9,30.30,NE,49,0.0,1.0,89,0.00,,,0.00,VWS V14.01,2013-01-03 02:16:00,
2013-01-02 21:31:00,18.1,15.1,30.30,NE,50,1.0,2.0,88,0.00,,,0.00,VWS V14.01,2013-01-03 02:31:00,
2013-01-02 21:46:00,17.9,15.2,30.31,NE,51,0.0,2.0,89,0.00,,,0.00,VWS V14.01,2013-01-03 02:46:00,
2013-01-02 22:01:00,17.6,14.7,30.31,NE,51,0.0,1.0,88,0.00,,,0.00,VWS V14.01,2013-01-03 03:01:00,
2013-01-02 22:16:00,17.1,14.2,30.30,ENE,69,0.0,2.0,88,0.00,,,0.00,VWS V14.01,2013-01-03 03:16:00,
2013-01-02 22:31:00,16.8,13.6,30.30,ENE,71,0.0,1.0,87,0.00,,,0.00,VWS V14.01,2013-01-03 03:31:00,
2013-01-02 22:46:00,16.6,13.4,30.31,ENE,76,0.0,2.0,87,0.00,,,0.00,VWS V14.01,2013-01-03 03:46:00,
2013-01-02 23:01:00,16.6,13.4,30.31,ENE,76,0.0,2.0,87,0.00,,,0.00,VWS V14.01,2013-01-03 04:01:00,
2013-01-02 23:16:00,16.6,13.4,30.31,SE,144,2.0,3.0,87,0.00,,,0.00,VWS V14.01,2013-01-03 04:16:00,
2013-01-02 23:31:00,16.3,13.1,30.31,SSE,148,0.0,3.0,87,0.00,,,0.00,VWS V14.01,2013-01-03 04:31:00,
2013-01-02 23:46:00,16.1,12.9,30.31,SSE,153,1.0,4.0,87,0.00,,,0.00,VWS V14.01,2013-01-03 04:46:00,